Pilot No 5 — WDC3840 — position and weather

sailwx.info

Track history (hours):
 
Tides and Currents Weather Stations Pressure Air Temp Water Temp Dewpoint Dewpoint Depression Visibility Wind Speed Wind Dir Waves Ship Positions

Pilot No 5

Owner: P E P INC, FT LAUDERDALE, FL. More information available from US FCC via Universal Licensing System and Coast Guard Vessel Documentation Center.

Last reported at 2018-Jan-18 15:41 UTC. Time now 2018-Jan-18 16:20 UTC.
Position N 26°06' W 080°07'.

Length 6 m.

Type: Pilot. MMSI: 367015090.

Date/timePositionNaut miles runAvg speedWind from/ knotsBaromVisibWave heightAir tempDewpointWater temp
2018-Jan-18 15:41N 26°06' W 080°07'1 2.9
2018-Jan-18 15:30N 26°06' W 080°07'2 3.3
2018-Jan-18 15:00N 26°05' W 080°05'2 4.6
2018-Jan-18 14:30N 26°04' W 080°07'3 5.2
2018-Jan-18 14:00N 26°06' W 080°05'1 2.4
2018-Jan-18 13:30N 26°06' W 080°06'3 6.1
2018-Jan-18 13:01N 26°05' W 080°03'4 8.0
2018-Jan-18 12:30N 26°06' W 080°07'510.9
2018-Jan-18 12:00N 26°05' W 080°01'510.4
2018-Jan-18 11:31N 26°05' W 080°07'0 0.7
2018-Jan-18 11:01N 26°05' W 080°07'2 3.7
2018-Jan-18 10:30N 26°05' W 080°05'4 7.3
2018-Jan-18 09:59N 26°05' W 080°01'611.7
2018-Jan-18 09:30N 26°06' W 080°07'0 0.2
2018-Jan-18 06:54N 26°06' W 080°07'1 3.4
2018-Jan-18 06:30N 26°06' W 080°06'1 1.7
2018-Jan-18 06:00N 26°05' W 080°07'0 0.3
2018-Jan-18 05:31N 26°05' W 080°07'1 1.0
2018-Jan-18 05:01N 26°06' W 080°06'1 1.5
2018-Jan-18 04:30N 26°05' W 080°07'1 0.6
2018-Jan-18 02:23N 26°06' W 080°07'2 6.5
2018-Jan-18 02:01N 26°07' W 080°05'2 3.3
2018-Jan-18 01:31N 26°06' W 080°06'0 0.3
2018-Jan-18 01:00N 26°06' W 080°06'1 0.9
2018-Jan-18 00:00N 26°06' W 080°07'0 3.0
2018-Jan-17 23:57N 26°06' W 080°07'  
2018-Jan-12 15:00N 26°04' W 080°07'1 2.0
2018-Jan-12 14:30N 26°05' W 080°07'2 3.7
2018-Jan-12 14:00N 26°06' W 080°05'2 3.9
2018-Jan-12 13:30N 26°06' W 080°07'0 0.3
2018-Jan-12 13:00N 26°06' W 080°07'1 0.1
2018-Jan-12 03:26N 26°06' W 080°07'4 9.0
2018-Jan-12 03:00N 26°05' W 080°03'3 5.0
2018-Jan-12 02:30N 26°06' W 080°06'0 0.2
2018-Jan-12 02:00N 26°06' W 080°06'0 0.8
2018-Jan-12 01:30N 26°05' W 080°05'1 2.3
2018-Jan-12 01:01N 26°06' W 080°07'0 0.6
2018-Jan-12 00:31N 26°05' W 080°07'0 0.1
2018-Jan-12 00:01N 26°06' W 080°07'0 0.1
2018-Jan-11 23:30N 26°06' W 080°07'1 2.4
2018-Jan-11 23:00N 26°06' W 080°06'1 2.8
2018-Jan-11 22:30N 26°05' W 080°07'0 0.5
2018-Jan-11 22:00N 26°05' W 080°07'0 0.1
2018-Jan-11 21:30N 26°05' W 080°07'0 0.7
2018-Jan-11 21:00N 26°05' W 080°07'1 0.0
2018-Jan-11 01:13N 26°06' W 080°07'1 3.0
2018-Jan-11 01:00N 26°06' W 080°07'1 1.4
2018-Jan-11 00:31N 26°06' W 080°06'1 1.1
2018-Jan-11 00:00N 26°05' W 080°07'1 2.7
2018-Jan-10 23:30N 26°06' W 080°05'0 0.4
2018-Jan-10 23:00N 26°06' W 080°05'2 3.3
2018-Jan-10 22:29N 26°06' W 080°07'2 3.2
2018-Jan-10 22:00N 26°06' W 080°05'1 2.9
2018-Jan-10 21:30N 26°05' W 080°07'1 1.0
2018-Jan-10 21:00N 26°06' W 080°07'0 0.4
2018-Jan-10 20:30N 26°06' W 080°07'1 0.5
2018-Jan-10 19:02N 26°06' W 080°07'0 5.6
2018-Jan-10 19:00N 26°06' W 080°07'0 0.0
2018-Jan-10 15:05N 26°06' W 080°07'0 4.1
2018-Jan-10 14:59N 26°06' W 080°07'0 0.7
2018-Jan-10 14:30N 26°05' W 080°07'0 0.5
2018-Jan-10 14:00N 26°06' W 080°07'0 0.4
2018-Jan-10 13:30N 26°06' W 080°07'4 7.7
2018-Jan-10 13:00N 26°05' W 080°03'4 7.5
2018-Jan-10 12:30N 26°05' W 080°07'1 0.1
2018-Jan-09 19:40N 26°06' W 080°07'1 6.9
2018-Jan-09 19:30N 26°06' W 080°06'1 1.7
2018-Jan-09 19:00N 26°06' W 080°07'0 0.9
2018-Jan-09 18:30N 26°05' W 080°07'1 0.9
2018-Jan-09 17:38N 26°06' W 080°07'1 5.8
2018-Jan-09 17:30N 26°05' W 080°07'1 1.8
2018-Jan-09 17:00N 26°05' W 080°07'1 2.9
2018-Jan-09 16:30N 26°06' W 080°06'1 2.4
2018-Jan-09 16:00N 26°06' W 080°07'1 0.9
2018-Jan-09 15:23N 26°06' W 080°07'2 6.3
2018-Jan-09 15:00N 26°06' W 080°05'1 2.5
2018-Jan-09 14:30N 26°07' W 080°04'1 2.1
2018-Jan-09 14:00N 26°06' W 080°03'4 7.4
2018-Jan-09 13:30N 26°05' W 080°07'1 2.4
2018-Jan-09 13:00N 26°06' W 080°06'1 2.7
2018-Jan-09 12:30N 26°05' W 080°07'2 0.1
2018-Jan-08 20:22N 26°06' W 080°07'1 3.0
2018-Jan-08 20:00N 26°05' W 080°07'2 3.4
2018-Jan-08 19:30N 26°05' W 080°05'2 3.3
2018-Jan-08 19:00N 26°06' W 080°07'2 3.1
2018-Jan-08 18:30N 26°06' W 080°05'1 1.5
2018-Jan-08 18:00N 26°06' W 080°06'1 3.0
2018-Jan-08 17:30N 26°04' W 080°07'1 2.2
2018-Jan-08 17:00N 26°05' W 080°07'0 0.6
2018-Jan-08 16:30N 26°06' W 080°07'0 0.1
2018-Jan-08 16:00N 26°06' W 080°07'  
Track history (hours):
 
Tides and Currents Weather Stations Pressure Air Temp Water Temp Dewpoint Dewpoint Depression Visibility Wind Speed Wind Dir Waves Ship Positions

Pilot No 5

Owner: P E P INC, FT LAUDERDALE, FL. More information available from US FCC via Universal Licensing System and Coast Guard Vessel Documentation Center.

Last reported at 2018-Jan-18 15:41 UTC. Time now 2018-Jan-18 16:20 UTC.
Position N 26°06' W 080°07'.

Length 6 m.

Type: Pilot. MMSI: 367015090.

Date/timePositionNaut miles runAvg speedWind from/ knotsBaromVisibWave heightAir tempDewpointWater temp
2018-Jan-18 15:41N 26°06' W 080°07'1 2.9
2018-Jan-18 15:30N 26°06' W 080°07'2 3.3
2018-Jan-18 15:00N 26°05' W 080°05'2 4.6
2018-Jan-18 14:30N 26°04' W 080°07'3 5.2
2018-Jan-18 14:00N 26°06' W 080°05'1 2.4
2018-Jan-18 13:30N 26°06' W 080°06'3 6.1
2018-Jan-18 13:01N 26°05' W 080°03'4 8.0
2018-Jan-18 12:30N 26°06' W 080°07'510.9
2018-Jan-18 12:00N 26°05' W 080°01'510.4
2018-Jan-18 11:31N 26°05' W 080°07'0 0.7
2018-Jan-18 11:01N 26°05' W 080°07'2 3.7
2018-Jan-18 10:30N 26°05' W 080°05'4 7.3
2018-Jan-18 09:59N 26°05' W 080°01'611.7
2018-Jan-18 09:30N 26°06' W 080°07'0 0.2
2018-Jan-18 06:54N 26°06' W 080°07'1 3.4
2018-Jan-18 06:30N 26°06' W 080°06'1 1.7
2018-Jan-18 06:00N 26°05' W 080°07'0 0.3
2018-Jan-18 05:31N 26°05' W 080°07'1 1.0
2018-Jan-18 05:01N 26°06' W 080°06'1 1.5
2018-Jan-18 04:30N 26°05' W 080°07'1 0.6
2018-Jan-18 02:23N 26°06' W 080°07'2 6.5
2018-Jan-18 02:01N 26°07' W 080°05'2 3.3
2018-Jan-18 01:31N 26°06' W 080°06'0 0.3
2018-Jan-18 01:00N 26°06' W 080°06'1 0.9
2018-Jan-18 00:00N 26°06' W 080°07'0 3.0
2018-Jan-17 23:57N 26°06' W 080°07'  
2018-Jan-12 15:00N 26°04' W 080°07'1 2.0
2018-Jan-12 14:30N 26°05' W 080°07'2 3.7
2018-Jan-12 14:00N 26°06' W 080°05'2 3.9
2018-Jan-12 13:30N 26°06' W 080°07'0 0.3
2018-Jan-12 13:00N 26°06' W 080°07'1 0.1
2018-Jan-12 03:26N 26°06' W 080°07'4 9.0
2018-Jan-12 03:00N 26°05' W 080°03'3 5.0
2018-Jan-12 02:30N 26°06' W 080°06'0 0.2
2018-Jan-12 02:00N 26°06' W 080°06'0 0.8
2018-Jan-12 01:30N 26°05' W 080°05'1 2.3
2018-Jan-12 01:01N 26°06' W 080°07'0 0.6
2018-Jan-12 00:31N 26°05' W 080°07'0 0.1
2018-Jan-12 00:01N 26°06' W 080°07'0 0.1
2018-Jan-11 23:30N 26°06' W 080°07'1 2.4
2018-Jan-11 23:00N 26°06' W 080°06'1 2.8
2018-Jan-11 22:30N 26°05' W 080°07'0 0.5
2018-Jan-11 22:00N 26°05' W 080°07'0 0.1
2018-Jan-11 21:30N 26°05' W 080°07'0 0.7
2018-Jan-11 21:00N 26°05' W 080°07'1 0.0
2018-Jan-11 01:13N 26°06' W 080°07'1 3.0
2018-Jan-11 01:00N 26°06' W 080°07'1 1.4
2018-Jan-11 00:31N 26°06' W 080°06'1 1.1
2018-Jan-11 00:00N 26°05' W 080°07'1 2.7
2018-Jan-10 23:30N 26°06' W 080°05'0 0.4
2018-Jan-10 23:00N 26°06' W 080°05'2 3.3
2018-Jan-10 22:29N 26°06' W 080°07'2 3.2
2018-Jan-10 22:00N 26°06' W 080°05'1 2.9
2018-Jan-10 21:30N 26°05' W 080°07'1 1.0
2018-Jan-10 21:00N 26°06' W 080°07'0 0.4
2018-Jan-10 20:30N 26°06' W 080°07'1 0.5
2018-Jan-10 19:02N 26°06' W 080°07'0 5.6
2018-Jan-10 19:00N 26°06' W 080°07'0 0.0
2018-Jan-10 15:05N 26°06' W 080°07'0 4.1
2018-Jan-10 14:59N 26°06' W 080°07'0 0.7
2018-Jan-10 14:30N 26°05' W 080°07'0 0.5
2018-Jan-10 14:00N 26°06' W 080°07'0 0.4
2018-Jan-10 13:30N 26°06' W 080°07'4 7.7
2018-Jan-10 13:00N 26°05' W 080°03'4 7.5
2018-Jan-10 12:30N 26°05' W 080°07'1 0.1
2018-Jan-09 19:40N 26°06' W 080°07'1 6.9
2018-Jan-09 19:30N 26°06' W 080°06'1 1.7
2018-Jan-09 19:00N 26°06' W 080°07'0 0.9
2018-Jan-09 18:30N 26°05' W 080°07'1 0.9
2018-Jan-09 17:38N 26°06' W 080°07'1 5.8
2018-Jan-09 17:30N 26°05' W 080°07'1 1.8
2018-Jan-09 17:00N 26°05' W 080°07'1 2.9
2018-Jan-09 16:30N 26°06' W 080°06'1 2.4
2018-Jan-09 16:00N 26°06' W 080°07'1 0.9
2018-Jan-09 15:23N 26°06' W 080°07'2 6.3
2018-Jan-09 15:00N 26°06' W 080°05'1 2.5
2018-Jan-09 14:30N 26°07' W 080°04'1 2.1
2018-Jan-09 14:00N 26°06' W 080°03'4 7.4
2018-Jan-09 13:30N 26°05' W 080°07'1 2.4
2018-Jan-09 13:00N 26°06' W 080°06'1 2.7
2018-Jan-09 12:30N 26°05' W 080°07'2 0.1
2018-Jan-08 20:22N 26°06' W 080°07'1 3.0
2018-Jan-08 20:00N 26°05' W 080°07'2 3.4
2018-Jan-08 19:30N 26°05' W 080°05'2 3.3
2018-Jan-08 19:00N 26°06' W 080°07'2 3.1
2018-Jan-08 18:30N 26°06' W 080°05'1 1.5
2018-Jan-08 18:00N 26°06' W 080°06'1 3.0
2018-Jan-08 17:30N 26°04' W 080°07'1 2.2
2018-Jan-08 17:00N 26°05' W 080°07'0 0.6
2018-Jan-08 16:30N 26°06' W 080°07'0 0.1
2018-Jan-08 16:00N 26°06' W 080°07'  

Dump ship's entire track history